sensor_id;sensor_type;location;lat;lon;timestamp;P1;durP1;ratioP1;P2;durP2;ratioP2
43706;SDS011;61348;53.392;-6.248;2023-04-01T00:01:15;2.25;;;2.05;;
43706;SDS011;61348;53.392;-6.248;2023-04-01T00:03:43;2.05;;;1.83;;
43706;SDS011;61348;53.392;-6.248;2023-04-01T00:06:13;1.70;;;1.60;;
43706;SDS011;61348;53.392;-6.248;2023-04-01T00:08:41;1.67;;;1.58;;
43706;SDS011;61348;53.392;-6.248;2023-04-01T00:11:08;3.08;;;1.48;;
43706;SDS011;61348;53.392;-6.248;2023-04-01T00:13:35;1.73;;;1.60;;
43706;SDS011;61348;53.392;-6.248;2023-04-01T00:16:02;1.80;;;1.70;;
43706;SDS011;61348;53.392;-6.248;2023-04-01T00:18:45;3.60;;;1.67;;
43706;SDS011;61348;53.392;-6.248;2023-04-01T00:21:13;2.42;;;2.15;;
43706;SDS011;61348;53.392;-6.248;2023-04-01T00:23:41;2.38;;;1.63;;
43706;SDS011;61348;53.392;-6.248;2023-04-01T00:26:07;4.65;;;3.15;;
43706;SDS011;61348;53.392;-6.248;2023-04-01T00:28:34;1.70;;;1.60;;
43706;SDS011;61348;53.392;-6.248;2023-04-01T00:31:05;3.00;;;2.00;;
43706;SDS011;61348;53.392;-6.248;2023-04-01T00:33:33;2.38;;;2.05;;
43706;SDS011;61348;53.392;-6.248;2023-04-01T00:38:33;1.85;;;1.75;;
43706;SDS011;61348;53.392;-6.248;2023-04-01T00:40:59;2.38;;;1.75;;
43706;SDS011;61348;53.392;-6.248;2023-04-01T00:43:26;1.50;;;1.40;;
43706;SDS011;61348;53.392;-6.248;2023-04-01T00:45:53;1.90;;;1.58;;
43706;SDS011;61348;53.392;-6.248;2023-04-01T00:48:21;2.92;;;1.98;;
43706;SDS011;61348;53.392;-6.248;2023-04-01T00:51:35;5.00;;;2.53;;
43706;SDS011;61348;53.392;-6.248;2023-04-01T00:53:50;4.13;;;3.05;;
43706;SDS011;61348;53.392;-6.248;2023-04-01T00:56:20;3.33;;;2.30;;
43706;SDS011;61348;53.392;-6.248;2023-04-01T00:58:58;10.98;;;4.13;;
43706;SDS011;61348;53.392;-6.248;2023-04-01T01:01:28;4.53;;;3.08;;
43706;SDS011;61348;53.392;-6.248;2023-04-01T01:03:56;5.55;;;3.33;;
43706;SDS011;61348;53.392;-6.248;2023-04-01T01:09:18;3.95;;;2.50;;
43706;SDS011;61348;53.392;-6.248;2023-04-01T01:17:30;2.50;;;2.30;;
43706;SDS011;61348;53.392;-6.248;2023-04-01T01:23:13;2.58;;;2.38;;
43706;SDS011;61348;53.392;-6.248;2023-04-01T01:37:50;2.97;;;1.60;;
43706;SDS011;61348;53.392;-6.248;2023-04-01T01:40:21;2.17;;;1.98;;
43706;SDS011;61348;53.392;-6.248;2023-04-01T01:42:51;1.75;;;1.65;;
43706;SDS011;61348;53.392;-6.248;2023-04-01T01:45:23;1.50;;;1.40;;
43706;SDS011;61348;53.392;-6.248;2023-04-01T01:47:53;2.25;;;1.77;;
43706;SDS011;61348;53.392;-6.248;2023-04-01T01:50:22;2.40;;;2.05;;
43706;SDS011;61348;53.392;-6.248;2023-04-01T01:53:00;2.30;;;2.10;;
43706;SDS011;61348;53.392;-6.248;2023-04-01T01:55:32;1.60;;;1.50;;
43706;SDS011;61348;53.392;-6.248;2023-04-01T01:58:07;1.83;;;1.50;;
43706;SDS011;61348;53.392;-6.248;2023-04-01T02:00:42;1.42;;;1.33;;
43706;SDS011;61348;53.392;-6.248;2023-04-01T02:03:13;1.55;;;1.17;;
43706;SDS011;61348;53.392;-6.248;2023-04-01T02:05:41;1.58;;;1.48;;
43706;SDS011;61348;53.392;-6.248;2023-04-01T02:08:13;1.30;;;1.20;;
43706;SDS011;61348;53.392;-6.248;2023-04-01T02:10:58;1.20;;;1.10;;
43706;SDS011;61348;53.392;-6.248;2023-04-01T02:13:40;1.40;;;1.30;;
43706;SDS011;61348;53.392;-6.248;2023-04-01T02:16:13;1.95;;;1.17;;
43706;SDS011;61348;53.392;-6.248;2023-04-01T02:18:45;3.10;;;1.10;;
43706;SDS011;61348;53.392;-6.248;2023-04-01T02:21:15;0.70;;;0.70;;
43706;SDS011;61348;53.392;-6.248;2023-04-01T02:23:44;0.77;;;0.77;;
43706;SDS011;61348;53.392;-6.248;2023-04-01T02:26:13;1.30;;;1.17;;
43706;SDS011;61348;53.392;-6.248;2023-04-01T02:28:41;1.00;;;1.00;;
43706;SDS011;61348;53.392;-6.248;2023-04-01T02:31:11;2.05;;;1.10;;
43706;SDS011;61348;53.392;-6.248;2023-04-01T02:33:39;1.55;;;1.45;;
43706;SDS011;61348;53.392;-6.248;2023-04-01T02:36:10;1.67;;;1.40;;
43706;SDS011;61348;53.392;-6.248;2023-04-01T02:38:40;1.35;;;1.10;;
43706;SDS011;61348;53.392;-6.248;2023-04-01T02:41:08;1.20;;;1.00;;
43706;SDS011;61348;53.392;-6.248;2023-04-01T02:43:35;1.75;;;1.25;;
43706;SDS011;61348;53.392;-6.248;2023-04-01T02:46:02;1.58;;;1.00;;
43706;SDS011;61348;53.392;-6.248;2023-04-01T02:48:29;1.30;;;1.05;;
43706;SDS011;61348;53.392;-6.248;2023-04-01T02:50:55;1.17;;;1.00;;
43706;SDS011;61348;53.392;-6.248;2023-04-01T02:53:22;1.85;;;1.40;;
43706;SDS011;61348;53.392;-6.248;2023-04-01T02:55:49;1.42;;;1.33;;
43706;SDS011;61348;53.392;-6.248;2023-04-01T02:58:18;2.97;;;1.40;;
43706;SDS011;61348;53.392;-6.248;2023-04-01T03:00:45;3.35;;;2.28;;
43706;SDS011;61348;53.392;-6.248;2023-04-01T03:03:12;3.28;;;1.70;;
43706;SDS011;61348;53.392;-6.248;2023-04-01T03:05:39;2.08;;;1.60;;
43706;SDS011;61348;53.392;-6.248;2023-04-01T03:08:07;2.80;;;1.80;;
43706;SDS011;61348;53.392;-6.248;2023-04-01T03:10:33;1.77;;;1.42;;
43706;SDS011;61348;53.392;-6.248;2023-04-01T03:13:00;2.28;;;1.58;;
43706;SDS011;61348;53.392;-6.248;2023-04-01T03:15:27;3.03;;;1.80;;
43706;SDS011;61348;53.392;-6.248;2023-04-01T03:17:54;1.60;;;1.50;;
43706;SDS011;61348;53.392;-6.248;2023-04-01T03:20:20;1.38;;;1.27;;
43706;SDS011;61348;53.392;-6.248;2023-04-01T03:22:47;2.05;;;1.48;;
43706;SDS011;61348;53.392;-6.248;2023-04-01T03:25:14;1.52;;;1.42;;
43706;SDS011;61348;53.392;-6.248;2023-04-01T03:27:41;1.27;;;1.20;;
43706;SDS011;61348;53.392;-6.248;2023-04-01T03:30:08;2.10;;;1.52;;
43706;SDS011;61348;53.392;-6.248;2023-04-01T03:32:35;2.50;;;1.80;;
43706;SDS011;61348;53.392;-6.248;2023-04-01T03:35:02;2.15;;;1.92;;
43706;SDS011;61348;53.392;-6.248;2023-04-01T03:37:30;2.47;;;1.60;;
43706;SDS011;61348;53.392;-6.248;2023-04-01T03:39:57;2.00;;;1.80;;
43706;SDS011;61348;53.392;-6.248;2023-04-01T03:42:24;2.72;;;1.98;;
43706;SDS011;61348;53.392;-6.248;2023-04-01T03:44:50;2.40;;;1.60;;
43706;SDS011;61348;53.392;-6.248;2023-04-01T03:47:17;1.95;;;1.75;;
43706;SDS011;61348;53.392;-6.248;2023-04-01T03:49:44;2.75;;;2.03;;
43706;SDS011;61348;53.392;-6.248;2023-04-01T03:52:10;2.65;;;1.58;;
43706;SDS011;61348;53.392;-6.248;2023-04-01T03:54:37;2.33;;;1.80;;
43706;SDS011;61348;53.392;-6.248;2023-04-01T03:57:04;2.95;;;2.00;;
43706;SDS011;61348;53.392;-6.248;2023-04-01T03:59:31;2.38;;;1.77;;
43706;SDS011;61348;53.392;-6.248;2023-04-01T04:01:58;2.65;;;1.85;;
43706;SDS011;61348;53.392;-6.248;2023-04-01T04:04:25;2.72;;;1.60;;
43706;SDS011;61348;53.392;-6.248;2023-04-01T04:06:53;5.00;;;1.52;;
43706;SDS011;61348;53.392;-6.248;2023-04-01T04:09:20;1.85;;;1.75;;
43706;SDS011;61348;53.392;-6.248;2023-04-01T04:11:47;1.50;;;1.40;;
43706;SDS011;61348;53.392;-6.248;2023-04-01T04:14:14;2.60;;;1.38;;
43706;SDS011;61348;53.392;-6.248;2023-04-01T04:16:40;1.75;;;1.65;;
43706;SDS011;61348;53.392;-6.248;2023-04-01T04:19:07;2.50;;;1.23;;
43706;SDS011;61348;53.392;-6.248;2023-04-01T04:21:34;1.58;;;1.27;;
43706;SDS011;61348;53.392;-6.248;2023-04-01T04:24:01;2.08;;;1.42;;
43706;SDS011;61348;53.392;-6.248;2023-04-01T04:26:28;3.17;;;1.27;;
43706;SDS011;61348;53.392;-6.248;2023-04-01T04:28:55;2.00;;;1.50;;
43706;SDS011;61348;53.392;-6.248;2023-04-01T04:31:22;2.22;;;1.08;;
43706;SDS011;61348;53.392;-6.248;2023-04-01T04:33:51;9.18;;;2.97;;
43706;SDS011;61348;53.392;-6.248;2023-04-01T04:36:18;3.20;;;1.45;;
43706;SDS011;61348;53.392;-6.248;2023-04-01T04:38:45;1.35;;;1.25;;
43706;SDS011;61348;53.392;-6.248;2023-04-01T04:41:13;5.47;;;1.58;;
43706;SDS011;61348;53.392;-6.248;2023-04-01T04:43:41;1.90;;;1.40;;
43706;SDS011;61348;53.392;-6.248;2023-04-01T04:46:09;1.23;;;1.13;;
43706;SDS011;61348;53.392;-6.248;2023-04-01T04:48:36;1.20;;;1.10;;
43706;SDS011;61348;53.392;-6.248;2023-04-01T04:51:03;2.28;;;1.20;;
43706;SDS011;61348;53.392;-6.248;2023-04-01T04:53:30;1.35;;;1.10;;
43706;SDS011;61348;53.392;-6.248;2023-04-01T04:55:57;2.35;;;1.13;;
43706;SDS011;61348;53.392;-6.248;2023-04-01T04:58:23;1.27;;;1.17;;
43706;SDS011;61348;53.392;-6.248;2023-04-01T05:00:50;1.58;;;1.20;;
43706;SDS011;61348;53.392;-6.248;2023-04-01T05:03:17;2.30;;;1.45;;
43706;SDS011;61348;53.392;-6.248;2023-04-01T05:05:51;2.53;;;1.00;;
43706;SDS011;61348;53.392;-6.248;2023-04-01T05:08:19;4.13;;;1.02;;
43706;SDS011;61348;53.392;-6.248;2023-04-01T05:10:46;1.67;;;1.20;;
43706;SDS011;61348;53.392;-6.248;2023-04-01T05:13:13;1.15;;;1.02;;
43706;SDS011;61348;53.392;-6.248;2023-04-01T05:15:40;1.30;;;1.20;;
43706;SDS011;61348;53.392;-6.248;2023-04-01T05:18:06;1.35;;;0.95;;
43706;SDS011;61348;53.392;-6.248;2023-04-01T05:20:33;1.45;;;1.10;;
43706;SDS011;61348;53.392;-6.248;2023-04-01T05:23:00;1.60;;;1.10;;
43706;SDS011;61348;53.392;-6.248;2023-04-01T05:25:27;2.28;;;1.50;;
43706;SDS011;61348;53.392;-6.248;2023-04-01T05:27:56;1.90;;;1.50;;
43706;SDS011;61348;53.392;-6.248;2023-04-01T05:30:23;1.90;;;1.27;;
43706;SDS011;61348;53.392;-6.248;2023-04-01T05:32:50;1.92;;;1.45;;
43706;SDS011;61348;53.392;-6.248;2023-04-01T05:35:17;2.58;;;1.80;;
43706;SDS011;61348;53.392;-6.248;2023-04-01T05:37:43;6.72;;;1.52;;
43706;SDS011;61348;53.392;-6.248;2023-04-01T05:40:10;1.65;;;1.05;;
43706;SDS011;61348;53.392;-6.248;2023-04-01T05:42:37;2.63;;;1.27;;
43706;SDS011;61348;53.392;-6.248;2023-04-01T05:45:04;2.72;;;1.48;;
43706;SDS011;61348;53.392;-6.248;2023-04-01T05:47:31;3.55;;;1.92;;
43706;SDS011;61348;53.392;-6.248;2023-04-01T05:49:58;2.97;;;1.45;;
43706;SDS011;61348;53.392;-6.248;2023-04-01T05:52:25;3.50;;;1.75;;
43706;SDS011;61348;53.392;-6.248;2023-04-01T05:54:51;3.25;;;1.30;;
43706;SDS011;61348;53.392;-6.248;2023-04-01T05:57:18;2.40;;;1.58;;
43706;SDS011;61348;53.392;-6.248;2023-04-01T05:59:45;2.53;;;1.60;;
43706;SDS011;61348;53.392;-6.248;2023-04-01T06:02:12;2.20;;;1.70;;
43706;SDS011;61348;53.392;-6.248;2023-04-01T06:04:40;2.22;;;1.55;;
43706;SDS011;61348;53.392;-6.248;2023-04-01T06:07:14;1.58;;;1.15;;
43706;SDS011;61348;53.392;-6.248;2023-04-01T06:09:42;3.17;;;1.83;;
43706;SDS011;61348;53.392;-6.248;2023-04-01T06:12:36;2.17;;;1.65;;
43706;SDS011;61348;53.392;-6.248;2023-04-01T06:18:03;4.20;;;2.60;;
43706;SDS011;61348;53.392;-6.248;2023-04-01T06:34:32;7.50;;;2.90;;
43706;SDS011;61348;53.392;-6.248;2023-04-01T06:37:15;10.57;;;3.20;;
43706;SDS011;61348;53.392;-6.248;2023-04-01T06:56:13;9.25;;;3.55;;
43706;SDS011;61348;53.392;-6.248;2023-04-01T06:58:46;9.75;;;4.18;;
43706;SDS011;61348;53.392;-6.248;2023-04-01T07:01:25;8.98;;;4.00;;
43706;SDS011;61348;53.392;-6.248;2023-04-01T07:03:57;14.23;;;4.75;;
43706;SDS011;61348;53.392;-6.248;2023-04-01T07:06:30;10.20;;;3.95;;
43706;SDS011;61348;53.392;-6.248;2023-04-01T07:09:19;10.95;;;4.68;;
43706;SDS011;61348;53.392;-6.248;2023-04-01T07:11:50;15.38;;;5.38;;
43706;SDS011;61348;53.392;-6.248;2023-04-01T07:17:15;6.85;;;2.95;;
43706;SDS011;61348;53.392;-6.248;2023-04-01T07:19:48;5.50;;;3.27;;
43706;SDS011;61348;53.392;-6.248;2023-04-01T07:22:27;6.60;;;2.88;;
43706;SDS011;61348;53.392;-6.248;2023-04-01T07:25:02;7.30;;;2.65;;
43706;SDS011;61348;53.392;-6.248;2023-04-01T07:27:32;10.32;;;3.00;;
43706;SDS011;61348;53.392;-6.248;2023-04-01T07:30:00;9.07;;;3.00;;
43706;SDS011;61348;53.392;-6.248;2023-04-01T07:38:04;10.90;;;2.97;;
43706;SDS011;61348;53.392;-6.248;2023-04-01T07:41:08;9.43;;;2.95;;
43706;SDS011;61348;53.392;-6.248;2023-04-01T07:52:14;4.70;;;2.33;;
43706;SDS011;61348;53.392;-6.248;2023-04-01T07:54:58;7.57;;;2.80;;
43706;SDS011;61348;53.392;-6.248;2023-04-01T07:57:29;7.22;;;2.13;;
43706;SDS011;61348;53.392;-6.248;2023-04-01T08:00:04;5.80;;;2.85;;
43706;SDS011;61348;53.392;-6.248;2023-04-01T08:05:34;5.03;;;2.63;;
43706;SDS011;61348;53.392;-6.248;2023-04-01T08:08:12;6.28;;;2.38;;
43706;SDS011;61348;53.392;-6.248;2023-04-01T08:11:14;7.50;;;2.83;;
43706;SDS011;61348;53.392;-6.248;2023-04-01T08:15:07;5.53;;;2.60;;
43706;SDS011;61348;53.392;-6.248;2023-04-01T08:25:10;3.92;;;2.63;;
43706;SDS011;61348;53.392;-6.248;2023-04-01T08:27:45;5.93;;;2.35;;
43706;SDS011;61348;53.392;-6.248;2023-04-01T08:32:59;2.65;;;1.90;;
43706;SDS011;61348;53.392;-6.248;2023-04-01T08:35:34;9.02;;;2.40;;
43706;SDS011;61348;53.392;-6.248;2023-04-01T08:38:11;4.22;;;2.80;;
43706;SDS011;61348;53.392;-6.248;2023-04-01T08:41:01;4.97;;;3.22;;
43706;SDS011;61348;53.392;-6.248;2023-04-01T08:46:34;5.35;;;2.60;;
43706;SDS011;61348;53.392;-6.248;2023-04-01T09:02:51;3.17;;;2.50;;
43706;SDS011;61348;53.392;-6.248;2023-04-01T09:05:36;1.90;;;1.70;;
43706;SDS011;61348;53.392;-6.248;2023-04-01T09:43:28;1.25;;;1.15;;
43706;SDS011;61348;53.392;-6.248;2023-04-01T09:46:07;2.22;;;1.10;;
43706;SDS011;61348;53.392;-6.248;2023-04-01T09:48:46;2.13;;;0.50;;
43706;SDS011;61348;53.392;-6.248;2023-04-01T09:51:37;2.58;;;0.95;;
43706;SDS011;61348;53.392;-6.248;2023-04-01T09:54:17;1.02;;;0.80;;
43706;SDS011;61348;53.392;-6.248;2023-04-01T09:57:09;0.70;;;0.50;;
43706;SDS011;61348;53.392;-6.248;2023-04-01T10:05:59;3.28;;;1.80;;
43706;SDS011;61348;53.392;-6.248;2023-04-01T10:12:02;5.82;;;1.98;;
43706;SDS011;61348;53.392;-6.248;2023-04-01T10:42:22;5.50;;;2.17;;
43706;SDS011;61348;53.392;-6.248;2023-04-01T11:38:37;1.98;;;1.20;;
43706;SDS011;61348;53.392;-6.248;2023-04-01T11:50:03;6.35;;;1.30;;
43706;SDS011;61348;53.392;-6.248;2023-04-01T11:52:31;6.93;;;1.10;;
43706;SDS011;61348;53.392;-6.248;2023-04-01T12:11:30;3.90;;;1.63;;
43706;SDS011;61348;53.392;-6.248;2023-04-01T12:21:44;2.60;;;1.40;;
43706;SDS011;61348;53.392;-6.248;2023-04-01T12:33:00;2.88;;;0.80;;
43706;SDS011;61348;53.392;-6.248;2023-04-01T12:56:09;7.35;;;1.45;;
43706;SDS011;61348;53.392;-6.248;2023-04-01T13:17:54;3.85;;;1.00;;
43706;SDS011;61348;53.392;-6.248;2023-04-01T13:20:43;2.92;;;1.13;;
43706;SDS011;61348;53.392;-6.248;2023-04-01T13:23:36;3.42;;;1.08;;
43706;SDS011;61348;53.392;-6.248;2023-04-01T13:29:13;3.25;;;1.20;;
43706;SDS011;61348;53.392;-6.248;2023-04-01T13:31:48;3.35;;;0.93;;
43706;SDS011;61348;53.392;-6.248;2023-04-01T13:34:59;8.77;;;1.20;;
43706;SDS011;61348;53.392;-6.248;2023-04-01T13:40:33;2.90;;;1.00;;
43706;SDS011;61348;53.392;-6.248;2023-04-01T13:48:45;1.25;;;0.73;;
43706;SDS011;61348;53.392;-6.248;2023-04-01T14:36:43;3.17;;;0.70;;
43706;SDS011;61348;53.392;-6.248;2023-04-01T14:47:28;6.40;;;1.23;;
43706;SDS011;61348;53.392;-6.248;2023-04-01T15:40:17;7.20;;;1.52;;
43706;SDS011;61348;53.392;-6.248;2023-04-01T15:45:56;6.35;;;1.52;;
43706;SDS011;61348;53.392;-6.248;2023-04-01T15:48:40;3.17;;;1.30;;
43706;SDS011;61348;53.392;-6.248;2023-04-01T15:51:39;4.40;;;1.30;;
43706;SDS011;61348;53.392;-6.248;2023-04-01T16:13:24;5.15;;;2.25;;
43706;SDS011;61348;53.392;-6.248;2023-04-01T16:24:17;12.30;;;3.83;;
43706;SDS011;61348;53.392;-6.248;2023-04-01T16:27:08;6.00;;;2.15;;
43706;SDS011;61348;53.392;-6.248;2023-04-01T16:29:47;12.38;;;4.93;;
43706;SDS011;61348;53.392;-6.248;2023-04-01T16:35:28;10.27;;;4.40;;
43706;SDS011;61348;53.392;-6.248;2023-04-01T16:46:33;3.85;;;1.90;;
43706;SDS011;61348;53.392;-6.248;2023-04-01T16:49:05;4.75;;;1.67;;
43706;SDS011;61348;53.392;-6.248;2023-04-01T16:57:30;7.75;;;2.90;;
43706;SDS011;61348;53.392;-6.248;2023-04-01T17:00:15;4.93;;;1.80;;
43706;SDS011;61348;53.392;-6.248;2023-04-01T17:19:31;1.48;;;0.70;;
43706;SDS011;61348;53.392;-6.248;2023-04-01T17:53:11;4.38;;;0.82;;
43706;SDS011;61348;53.392;-6.248;2023-04-01T17:55:46;5.75;;;1.85;;
43706;SDS011;61348;53.392;-6.248;2023-04-01T17:58:21;3.35;;;0.70;;
43706;SDS011;61348;53.392;-6.248;2023-04-01T18:08:59;4.45;;;1.13;;
43706;SDS011;61348;53.392;-6.248;2023-04-01T18:17:42;3.33;;;1.13;;
43706;SDS011;61348;53.392;-6.248;2023-04-01T18:22:58;8.43;;;1.83;;
43706;SDS011;61348;53.392;-6.248;2023-04-01T18:30:54;9.50;;;2.58;;
43706;SDS011;61348;53.392;-6.248;2023-04-01T18:36:32;4.10;;;1.73;;
43706;SDS011;61348;53.392;-6.248;2023-04-01T18:39:13;6.75;;;1.50;;
43706;SDS011;61348;53.392;-6.248;2023-04-01T18:47:41;10.05;;;1.60;;
43706;SDS011;61348;53.392;-6.248;2023-04-01T18:50:19;9.05;;;2.30;;
43706;SDS011;61348;53.392;-6.248;2023-04-01T18:52:51;6.80;;;1.88;;
43706;SDS011;61348;53.392;-6.248;2023-04-01T18:55:39;7.78;;;3.30;;
43706;SDS011;61348;53.392;-6.248;2023-04-01T19:00:41;10.50;;;4.38;;
43706;SDS011;61348;53.392;-6.248;2023-04-01T19:03:21;15.52;;;3.78;;
43706;SDS011;61348;53.392;-6.248;2023-04-01T19:05:54;12.52;;;3.72;;
43706;SDS011;61348;53.392;-6.248;2023-04-01T19:14:00;7.60;;;2.15;;
43706;SDS011;61348;53.392;-6.248;2023-04-01T19:17:10;9.38;;;2.70;;
43706;SDS011;61348;53.392;-6.248;2023-04-01T19:30:58;7.80;;;2.67;;
43706;SDS011;61348;53.392;-6.248;2023-04-01T20:00:59;9.98;;;2.63;;
43706;SDS011;61348;53.392;-6.248;2023-04-01T20:07:07;7.85;;;1.50;;
43706;SDS011;61348;53.392;-6.248;2023-04-01T20:11:59;5.93;;;1.60;;
43706;SDS011;61348;53.392;-6.248;2023-04-01T20:14:40;8.25;;;2.08;;
43706;SDS011;61348;53.392;-6.248;2023-04-01T20:17:17;14.32;;;3.75;;
43706;SDS011;61348;53.392;-6.248;2023-04-01T20:19:50;9.93;;;2.33;;
43706;SDS011;61348;53.392;-6.248;2023-04-01T20:24:57;8.77;;;1.85;;
43706;SDS011;61348;53.392;-6.248;2023-04-01T20:27:31;4.90;;;1.52;;
43706;SDS011;61348;53.392;-6.248;2023-04-01T20:33:07;6.95;;;1.35;;
43706;SDS011;61348;53.392;-6.248;2023-04-01T20:41:23;7.07;;;2.03;;
43706;SDS011;61348;53.392;-6.248;2023-04-01T20:44:13;6.93;;;1.90;;
43706;SDS011;61348;53.392;-6.248;2023-04-01T20:57:41;7.57;;;1.92;;
43706;SDS011;61348;53.392;-6.248;2023-04-01T21:08:40;8.70;;;1.90;;
43706;SDS011;61348;53.392;-6.248;2023-04-01T21:11:30;5.07;;;1.92;;
43706;SDS011;61348;53.392;-6.248;2023-04-01T21:22:51;7.35;;;2.00;;
43706;SDS011;61348;53.392;-6.248;2023-04-01T21:31:39;6.60;;;1.60;;
43706;SDS011;61348;53.392;-6.248;2023-04-01T21:34:40;7.28;;;1.65;;
43706;SDS011;61348;53.392;-6.248;2023-04-01T21:43:16;6.68;;;1.98;;
43706;SDS011;61348;53.392;-6.248;2023-04-01T22:00:18;8.65;;;1.80;;
43706;SDS011;61348;53.392;-6.248;2023-04-01T22:03:03;13.57;;;3.78;;
43706;SDS011;61348;53.392;-6.248;2023-04-01T22:14:24;9.35;;;1.48;;
43706;SDS011;61348;53.392;-6.248;2023-04-01T22:16:58;16.65;;;3.28;;
43706;SDS011;61348;53.392;-6.248;2023-04-01T22:19:39;6.03;;;1.35;;
43706;SDS011;61348;53.392;-6.248;2023-04-01T22:22:22;6.55;;;1.63;;
43706;SDS011;61348;53.392;-6.248;2023-04-01T22:27:32;6.20;;;1.45;;
43706;SDS011;61348;53.392;-6.248;2023-04-01T22:32:48;8.82;;;1.48;;
43706;SDS011;61348;53.392;-6.248;2023-04-01T22:35:49;6.22;;;1.50;;
43706;SDS011;61348;53.392;-6.248;2023-04-01T22:40:49;9.18;;;1.40;;
43706;SDS011;61348;53.392;-6.248;2023-04-01T22:54:22;2.33;;;1.48;;
43706;SDS011;61348;53.392;-6.248;2023-04-01T22:56:57;5.35;;;1.35;;
43706;SDS011;61348;53.392;-6.248;2023-04-01T22:59:39;5.30;;;2.63;;
43706;SDS011;61348;53.392;-6.248;2023-04-01T23:02:22;4.03;;;1.63;;
43706;SDS011;61348;53.392;-6.248;2023-04-01T23:04:59;6.35;;;2.50;;
43706;SDS011;61348;53.392;-6.248;2023-04-01T23:12:51;8.63;;;1.65;;
43706;SDS011;61348;53.392;-6.248;2023-04-01T23:15:21;4.60;;;1.40;;
43706;SDS011;61348;53.392;-6.248;2023-04-01T23:20:32;9.30;;;1.67;;
43706;SDS011;61348;53.392;-6.248;2023-04-01T23:25:47;8.45;;;1.75;;
43706;SDS011;61348;53.392;-6.248;2023-04-01T23:28:33;10.45;;;2.20;;
43706;SDS011;61348;53.392;-6.248;2023-04-01T23:31:24;10.63;;;3.28;;
43706;SDS011;61348;53.392;-6.248;2023-04-01T23:33:58;6.85;;;1.40;;
43706;SDS011;61348;53.392;-6.248;2023-04-01T23:36:27;9.43;;;1.83;;
43706;SDS011;61348;53.392;-6.248;2023-04-01T23:39:03;5.88;;;1.65;;
43706;SDS011;61348;53.392;-6.248;2023-04-01T23:41:33;11.20;;;2.38;;
43706;SDS011;61348;53.392;-6.248;2023-04-01T23:44:05;6.60;;;1.60;;
43706;SDS011;61348;53.392;-6.248;2023-04-01T23:46:37;10.35;;;1.75;;
43706;SDS011;61348;53.392;-6.248;2023-04-01T23:49:11;12.20;;;2.17;;
43706;SDS011;61348;53.392;-6.248;2023-04-01T23:51:48;13.98;;;1.67;;
43706;SDS011;61348;53.392;-6.248;2023-04-01T23:54:23;9.13;;;1.85;;
43706;SDS011;61348;53.392;-6.248;2023-04-01T23:56:57;7.03;;;2.05;;
43706;SDS011;61348;53.392;-6.248;2023-04-01T23:59:28;9.90;;;2.38;;
